メインページ
METAR-TAF:

METAR-TAF

空港 :

レスブリッジ, アルバータ州, カナダ

緯度: 49-38N, 経度: 112-48W, 海抜: 929m

現時点の気象観測

当レポートは43分前の02:00(UTC)に作成
南/南西の風 9kt
気温 -3°C
湿度 93%
気圧 1008 hPa
視程: 24.1km
高度15000ftの雲はほとんどない
高度19000ftの雲は散在している
高度24000ftの千切れ雲あり

METAR: CYQL 070200Z 21009KT 15SM FEW150 SCT190 BKN240 M03/M04 A2978 RMK AC1AC2CI4 SLP136

時間: 19:43 (02:43 UTC)

予報

当レポートは3時間5分前の23:38(UTC)に作成
予報は07日の 00時(UTC)から 07日の 12時(UTC)まで有効
南/南西の風 5kt
視程: 10km
高度10000ftの雲はほとんどない
高度16000ftの雲は散在している
高度27000ftの千切れ雲あり
07日の 01時(UTC)から 07日の 03時(UTC)まで徐々に
南西の風 15kt

TAF: CYQL 062338Z 0700/0712 20005KT P6SM FEW100 SCT160 BKN270 BECMG 0701/0703 23015KT RMK NXT FCST BY 070600Z

4,000以上の空港の気象観測と天気予報(METAR報とTAF報)

利用可能な観測所は地図上に黄色い丸と赤い丸で示す。

丸の上にカーソルを重ねると観測所名を参照できる。

次にクリックすると気象観測と天気予報を参照できる。

マップの切り替え:黒色「×」印の緑ボタンをクリックして拡大、「-」印の緑ボタンをクリックして縮小、緑色の三角印をクリックして隣りの地図に切り替え


METAR-TAF: